Aeroporto :
LOGIN :

Iscrizione | Disclaimer

   EN    FR    IT 

 










Sommario :    VFR   VFR Marginale   IFR   IFR Intensivo   IFR Molto Intensivo
Visibilità : 
Base nubi : 
>= 8 km
>= 3000ft
5 / 8 km
1000 / 3000 ft
1500m / 5 km
500 / 1000 ft
800 / 1500m
200 / 500 ft
< 800m
< 200 ft
Simboli :   Temporali  Nebbia  Neve Forte  Precipitazioni Forti  Vento > 20 kt
SIGMETs :   Varie  Temporali  Ghiacco  Turbolenza  Onda orograficha  Ceneri Vulcaniche






- Altitudine del aeroporto : 526 ft
- Codice IATA : LTN


EGGW - London Luton

ULTIMO METAR :
  • 290320Z AUTO 01016KT 9999 BKN027 02/M02 Q1035

METARs OBSOLETI :
  • 290250Z AUTO 01015KT 9999 SCT039 BKN046 03/M02 Q1035
  • 290220Z AUTO 02014KT 9999 NCD 02/M01 Q1035
  • 290150Z AUTO 01015G25KT 9999 NCD 02/M01 Q1035
  • 290120Z AUTO 02014KT 9999 NCD 02/M01 Q1035
  • 290050Z AUTO 02014KT 9999 NCD 02/M00 Q1035

TAF TAF EGGW
Valido dal 29 a 00 ore il 30 a 00 ore UTC


282301Z 2900/2924 02014KT 9999 SCT045
TEMPO 2900/2906 03020G30KT
PROB30
TEMPO 2900/2909 4000 -SHRASN BKN012
BECMG 2906/2909 03020G30KT
PROB30
TEMPO 2909/2915 7000 SHRA
BECMG 2916/2919 03010KT
PROB30
TEMPO 2921/2924 4000 -SHRASN BKN014
ATIS : +44 1582 395 204



MetMap, La meteo Aeronautica in un colpo d'occhio ! - Copyright ORBIFLY Dicembre 2007 - Disclaimer

ORBIFLY MET'MAP TEAM :

Programmazione e sviluppo : Alexandra Zaïnal
Concezione : Baudouin d'Aumeries
Aiuto per la programmazione : Marc-Olivier Méhu
Supporto tecnico e logistico : Manuel Goepfert
Aiuto per la traduzione : Arnaldo La Scala

Contatto : metmap@orbifly.com




FONTI E CREDITI :

   NOAA